createdAt,value
2023-05-13T00:04:53.365Z,15.90
2023-05-13T00:09:57.094Z,15.80
2023-05-13T00:14:59.227Z,15.80
2023-05-13T00:20:01.465Z,15.70
2023-05-13T00:25:05.707Z,15.70
2023-05-13T00:30:09.310Z,15.70
2023-05-13T00:35:11.480Z,15.60
2023-05-13T00:40:20.394Z,15.50
2023-05-13T00:45:22.954Z,15.50
2023-05-13T00:50:25.446Z,15.40
2023-05-13T00:55:29.104Z,15.30
2023-05-13T01:00:35.087Z,15.30
2023-05-13T01:05:43.386Z,15.20
2023-05-13T01:10:50.542Z,15.10
2023-05-13T01:15:59.522Z,15.00
2023-05-13T01:21:03.614Z,14.80
2023-05-13T01:26:07.283Z,14.80
2023-05-13T01:31:09.889Z,14.70
2023-05-13T01:36:12.172Z,14.60
2023-05-13T01:41:15.972Z,14.50
2023-05-13T01:46:18.556Z,14.50
2023-05-13T01:51:20.885Z,14.50
2023-05-13T01:56:24.541Z,14.50
2023-05-13T02:01:26.721Z,14.50
2023-05-13T02:06:29.010Z,14.40
2023-05-13T02:11:32.695Z,14.40
2023-05-13T02:16:35.109Z,14.40
2023-05-13T02:21:37.439Z,14.40
2023-05-13T02:26:41.051Z,14.30
2023-05-13T02:31:43.366Z,14.20
2023-05-13T02:36:45.731Z,14.20
2023-05-13T02:41:49.330Z,14.10
2023-05-13T02:46:51.619Z,14.10
2023-05-13T02:51:53.785Z,14.10
2023-05-13T02:56:57.436Z,14.00
2023-05-13T03:01:59.641Z,14.00
2023-05-13T03:07:01.856Z,13.90
2023-05-13T03:12:06.349Z,13.90
2023-05-13T03:17:08.606Z,13.80
2023-05-13T03:22:10.839Z,13.70
2023-05-13T03:27:14.533Z,13.60
2023-05-13T03:32:16.737Z,13.60
2023-05-13T03:37:18.910Z,13.50
2023-05-13T03:42:22.866Z,13.50
2023-05-13T03:47:25.312Z,13.40
2023-05-13T03:52:27.679Z,13.40
2023-05-13T03:57:31.420Z,13.40
2023-05-13T04:02:33.810Z,13.40
2023-05-13T04:07:36.183Z,13.40
2023-05-13T04:12:40.028Z,13.50
2023-05-13T04:17:42.272Z,13.50
2023-05-13T04:22:44.628Z,13.60
2023-05-13T04:27:48.279Z,13.70
2023-05-13T04:32:50.593Z,13.80
2023-05-13T04:37:52.762Z,13.90
2023-05-13T04:42:56.483Z,14.10
2023-05-13T04:47:58.761Z,14.40
2023-05-13T04:53:00.996Z,14.70
2023-05-13T04:58:04.652Z,15.00
2023-05-13T05:03:06.927Z,15.50
2023-05-13T05:08:09.250Z,16.10
2023-05-13T05:13:12.961Z,16.70
2023-05-13T05:18:15.169Z,17.40
2023-05-13T05:23:17.600Z,18.20
2023-05-13T05:28:21.206Z,18.90
2023-05-13T05:33:23.763Z,19.70
2023-05-13T05:38:25.935Z,20.40
2023-05-13T05:43:29.572Z,21.00
2023-05-13T05:48:33.823Z,21.50
2023-05-13T05:53:37.031Z,22.20
2023-05-13T05:58:40.780Z,22.90
2023-05-13T06:03:43.146Z,23.50
2023-05-13T06:08:45.455Z,24.20
2023-05-13T06:13:49.105Z,24.80
2023-05-13T06:18:51.418Z,25.40
2023-05-13T06:23:53.779Z,26.00
2023-05-13T06:28:57.580Z,26.50
2023-05-13T06:33:59.742Z,26.90
2023-05-13T06:39:01.968Z,27.30
2023-05-13T06:44:07.267Z,27.70
2023-05-13T06:49:09.494Z,28.00
2023-05-13T06:54:11.800Z,28.40
2023-05-13T06:59:15.550Z,28.80
2023-05-13T07:04:17.780Z,29.30
2023-05-13T07:09:20.076Z,29.60
2023-05-13T07:14:23.734Z,29.90
2023-05-13T07:19:25.964Z,30.10
2023-05-13T07:24:28.287Z,30.50
2023-05-13T07:29:32.565Z,31.00
2023-05-13T07:34:34.777Z,31.20
2023-05-13T07:39:36.937Z,31.50
2023-05-13T07:44:40.681Z,31.70
2023-05-13T07:49:42.881Z,32.10
2023-05-13T07:54:45.049Z,32.60
2023-05-13T07:59:48.701Z,33.00
2023-05-13T08:04:51.047Z,33.10
2023-05-13T08:09:53.481Z,33.40
2023-05-13T08:14:57.154Z,33.70
2023-05-13T08:20:00.881Z,34.10
2023-05-13T08:25:03.288Z,34.20
2023-05-13T08:30:08.677Z,34.20
2023-05-13T08:35:11.065Z,34.30
2023-05-13T08:40:13.456Z,34.70
2023-05-13T08:45:21.432Z,35.10
2023-05-13T08:50:25.043Z,35.40
2023-05-13T08:55:27.883Z,35.40
2023-05-13T09:00:31.914Z,35.50
2023-05-13T09:05:37.745Z,35.70
2023-05-13T09:10:41.162Z,36.00
2023-05-13T09:15:45.281Z,36.30
2023-05-13T09:20:47.609Z,36.50
2023-05-13T09:25:51.810Z,36.70
2023-05-13T09:30:58.240Z,36.90
2023-05-13T09:36:03.660Z,37.00
2023-05-13T09:41:06.006Z,36.50
2023-05-13T09:46:10.533Z,36.20
2023-05-13T09:51:15.131Z,36.30
2023-05-13T09:56:22.336Z,36.20
2023-05-13T10:01:27.927Z,36.10
2023-05-13T10:06:31.306Z,36.10
2023-05-13T10:11:35.842Z,36.10
2023-05-13T10:16:39.760Z,35.20
2023-05-13T10:21:42.199Z,34.40
2023-05-13T10:26:45.298Z,33.90
2023-05-13T10:31:51.219Z,33.80
2023-05-13T10:37:14.750Z,33.50
2023-05-13T10:42:39.619Z,33.00
2023-05-13T10:47:43.478Z,32.80
2023-05-13T10:52:47.859Z,32.60
2023-05-13T10:58:10.497Z,32.60
2023-05-13T11:03:28.814Z,32.50
2023-05-13T11:08:38.511Z,32.00
2023-05-13T11:13:40.774Z,31.30
2023-05-13T11:18:44.810Z,30.60
2023-05-13T11:23:56.293Z,30.00
2023-05-13T11:29:00.456Z,29.70
2023-05-13T11:34:12.732Z,30.00
2023-05-13T11:39:17.018Z,30.20
2023-05-13T11:44:20.546Z,30.30
2023-05-13T11:49:39.896Z,30.20
2023-05-13T11:54:44.168Z,30.20
2023-05-13T11:59:55.523Z,30.00
2023-05-13T12:05:03.031Z,29.70
2023-05-13T12:10:07.093Z,29.30
2023-05-13T12:15:12.429Z,29.00
2023-05-13T12:20:16.978Z,28.80
2023-05-13T12:25:39.525Z,28.60
2023-05-13T12:30:43.558Z,28.30
2023-05-13T12:35:48.465Z,27.90
2023-05-13T12:40:51.616Z,27.70
2023-05-13T12:45:54.241Z,27.70
2023-05-13T12:50:59.553Z,27.60
2023-05-13T12:56:02.852Z,27.80
2023-05-13T13:01:06.052Z,28.10
2023-05-13T13:06:09.854Z,28.40
2023-05-13T13:11:12.169Z,28.90
2023-05-13T13:16:14.888Z,29.30
2023-05-13T13:21:18.877Z,29.40
2023-05-13T13:26:22.048Z,29.40
2023-05-13T13:31:24.255Z,29.50
2023-05-13T13:36:27.907Z,29.70
2023-05-13T13:41:30.145Z,29.80
2023-05-13T13:46:32.503Z,30.00
2023-05-13T13:51:36.076Z,29.80
2023-05-13T13:56:38.623Z,29.70
2023-05-13T14:01:40.868Z,29.70
2023-05-13T14:06:45.486Z,29.70
2023-05-13T14:11:48.033Z,29.50
2023-05-13T14:16:50.423Z,29.30
2023-05-13T14:21:54.066Z,29.30
2023-05-13T14:26:56.325Z,29.30
2023-05-13T14:32:05.054Z,29.20
2023-05-13T14:37:09.885Z,29.20
2023-05-13T14:42:12.224Z,29.10
2023-05-13T14:47:23.215Z,29.10
2023-05-13T14:52:37.498Z,29.00
2023-05-13T14:57:45.448Z,29.00
2023-05-13T15:03:01.023Z,29.00
2023-05-13T15:08:15.608Z,28.90
2023-05-13T15:13:18.787Z,28.90
2023-05-13T15:18:21.209Z,28.70
2023-05-13T15:23:24.844Z,28.60
2023-05-13T15:28:27.123Z,28.60
2023-05-13T15:33:29.363Z,28.50
2023-05-13T15:38:33.078Z,28.30
2023-05-13T15:43:35.423Z,28.20
2023-05-13T15:48:37.728Z,28.10
2023-05-13T15:53:41.469Z,28.00
2023-05-13T15:58:43.610Z,27.90
2023-05-13T16:03:45.834Z,27.70
2023-05-13T16:08:49.545Z,27.60
2023-05-13T16:13:52.573Z,27.50
2023-05-13T16:18:54.980Z,27.30
2023-05-13T16:23:59.036Z,27.20
2023-05-13T16:29:01.313Z,27.10
2023-05-13T16:34:03.643Z,27.00
2023-05-13T16:39:07.235Z,26.90
2023-05-13T16:44:09.621Z,26.80
2023-05-13T16:49:11.948Z,26.60
2023-05-13T16:54:15.902Z,26.50
2023-05-13T16:59:22.089Z,26.30
2023-05-13T17:04:24.352Z,26.20
2023-05-13T17:09:29.578Z,26.10
2023-05-13T17:14:31.847Z,26.00
2023-05-13T17:19:34.167Z,25.90
2023-05-13T17:24:37.842Z,25.70
2023-05-13T17:29:40.048Z,25.50
2023-05-13T17:34:42.177Z,25.30
2023-05-13T17:39:45.853Z,25.20
2023-05-13T17:44:48.381Z,25.00
2023-05-13T17:49:50.886Z,24.80
2023-05-13T17:54:54.601Z,24.70
2023-05-13T17:59:56.783Z,24.50
2023-05-13T18:04:59.043Z,24.40
2023-05-13T18:10:02.870Z,24.20
2023-05-13T18:15:06.420Z,24.00
2023-05-13T18:20:09.660Z,23.80
2023-05-13T18:25:13.497Z,23.60
2023-05-13T18:30:16.107Z,23.40
2023-05-13T18:35:18.579Z,23.20
2023-05-13T18:40:22.554Z,23.00
2023-05-13T18:45:25.163Z,22.70
2023-05-13T18:50:27.512Z,22.50
2023-05-13T18:55:31.236Z,22.30
2023-05-13T19:00:33.506Z,22.10
2023-05-13T19:05:35.860Z,21.80
2023-05-13T19:10:40.191Z,21.60
2023-05-13T19:15:42.999Z,21.40
2023-05-13T19:20:45.752Z,21.20
2023-05-13T19:25:49.356Z,21.00
2023-05-13T19:30:52.267Z,20.70
2023-05-13T19:35:54.714Z,20.50
2023-05-13T19:40:58.388Z,20.40
2023-05-13T19:46:00.713Z,20.10
2023-05-13T19:51:03.069Z,20.00
2023-05-13T19:56:06.839Z,19.80
2023-05-13T20:01:09.016Z,19.60
2023-05-13T20:06:11.165Z,19.50
2023-05-13T20:11:14.914Z,19.30
2023-05-13T20:16:17.120Z,19.20
2023-05-13T20:21:19.311Z,19.10
2023-05-13T20:26:22.918Z,18.90
2023-05-13T20:31:25.167Z,18.70
2023-05-13T20:36:27.486Z,18.60
2023-05-13T20:41:31.155Z,18.50
2023-05-13T20:46:33.507Z,18.30
2023-05-13T20:51:35.813Z,18.20
2023-05-13T20:56:39.731Z,18.00
2023-05-13T21:01:43.665Z,17.80
2023-05-13T21:06:45.961Z,17.70
2023-05-13T21:11:49.727Z,17.50
2023-05-13T21:16:51.943Z,17.40
2023-05-13T21:21:54.168Z,17.30
2023-05-13T21:26:57.788Z,17.20
2023-05-13T21:32:00.006Z,17.10
2023-05-13T21:37:02.180Z,17.00
2023-05-13T21:42:06.333Z,16.90
2023-05-13T21:47:08.642Z,16.80
2023-05-13T21:52:10.844Z,16.70
2023-05-13T21:57:14.391Z,16.60
2023-05-13T22:02:16.661Z,16.60
2023-05-13T22:07:18.983Z,16.50
2023-05-13T22:12:22.618Z,16.40
2023-05-13T22:17:25.014Z,16.40
2023-05-13T22:22:27.523Z,16.30
2023-05-13T22:27:31.171Z,16.20
2023-05-13T22:32:33.428Z,16.20
2023-05-13T22:37:35.665Z,16.10
2023-05-13T22:42:39.302Z,16.10
2023-05-13T22:47:41.535Z,16.10
2023-05-13T22:52:43.743Z,16.00
2023-05-13T22:57:47.488Z,15.90
2023-05-13T23:02:49.863Z,15.80
2023-05-13T23:07:52.214Z,15.80
2023-05-13T23:12:55.847Z,15.70
2023-05-13T23:17:58.122Z,15.70
2023-05-13T23:23:00.443Z,15.60
2023-05-13T23:28:04.087Z,15.60
2023-05-13T23:33:06.393Z,15.40
2023-05-13T23:38:08.639Z,15.40
2023-05-13T23:43:13.717Z,15.30
2023-05-13T23:48:15.897Z,15.20
2023-05-13T23:53:18.124Z,15.20
2023-05-13T23:58:21.814Z,15.10
